Time;durP1;ratioP1;P1;durP2;ratioP2;P2;SDS_P1;SDS_P2;PMS_P1;PMS_P2;Temp;Humidity;BMP_temperature;BMP_pressure;BME280_temperature;BME280_humidity;BME280_pressure;Samples;Min_cycle;Max_cycle;Signal;HPM_P1;HPM_P2
2021/09/03 00:01:51;;;;;;;23.33;13.68;;;;;;;;;;4878285;29;20473;-70
2021/09/03 00:04:17;;;;;;;53.95;29.35;;;;;;;;;;4884216;29;20415;-70
2021/09/03 00:06:44;;;;;;;24.05;15.60;;;;;;;;;;4896555;29;20056;-70
2021/09/03 00:09:11;;;;;;;22.70;14.68;;;;;;;;;;4895286;29;20060;-70
2021/09/03 00:11:37;;;;;;;31.23;19.02;;;;;;;;;;4896580;29;20637;-70
2021/09/03 00:14:04;;;;;;;18.10;12.82;;;;;;;;;;4896733;29;20049;-70
2021/09/03 00:16:30;;;;;;;15.10;11.02;;;;;;;;;;4896813;29;20104;-70
2021/09/03 00:18:57;;;;;;;13.70;10.63;;;;;;;;;;4896649;29;20057;-70
2021/09/03 00:21:24;;;;;;;13.85;10.40;;;;;;;;;;4896495;29;20448;-70
2021/09/03 00:23:50;;;;;;;14.60;9.45;;;;;;;;;;4896473;29;20564;-70
2021/09/03 00:26:17;;;;;;;13.48;9.68;;;;;;;;;;4896649;29;20105;-70
2021/09/03 00:28:43;;;;;;;13.77;9.55;;;;;;;;;;4896752;29;20104;-70
2021/09/03 00:31:10;;;;;;;13.38;9.70;;;;;;;;;;4896778;29;20056;-70
2021/09/03 00:33:37;;;;;;;13.65;10.10;;;;;;;;;;4896354;29;20396;-70
2021/09/03 00:36:03;;;;;;;12.63;10.20;;;;;;;;;;4896470;29;20468;-70
2021/09/03 00:38:30;;;;;;;11.55;8.93;;;;;;;;;;4896739;29;20081;-70
2021/09/03 00:40:56;;;;;;;12.38;9.07;;;;;;;;;;4896312;29;20500;-70
2021/09/03 00:43:24;;;;;;;12.73;9.43;;;;;;;;;;4896212;29;20552;-70
2021/09/03 00:45:50;;;;;;;14.10;9.05;;;;;;;;;;4879662;29;20056;-70
2021/09/03 00:48:17;;;;;;;13.88;9.70;;;;;;;;;;4900125;29;20484;-70
2021/09/03 00:50:44;;;;;;;12.77;9.23;;;;;;;;;;4899931;29;20124;-70
2021/09/03 00:53:10;;;;;;;13.57;10.13;;;;;;;;;;4892233;29;20049;-70
2021/09/03 00:55:37;;;;;;;11.85;9.43;;;;;;;;;;4900036;29;20555;-70
2021/09/03 00:58:03;;;;;;;14.27;9.50;;;;;;;;;;4898821;29;20052;-70
2021/09/03 01:00:30;;;;;;;12.38;9.38;;;;;;;;;;4899695;29;20061;-70
2021/09/03 01:02:57;;;;;;;11.00;8.68;;;;;;;;;;4899715;29;20128;-69
2021/09/03 01:05:24;;;;;;;12.68;8.88;;;;;;;;;;4899745;29;20092;-70
2021/09/03 01:07:51;;;;;;;12.55;8.82;;;;;;;;;;4893133;29;20045;-70
2021/09/03 01:10:21;;;;;;;13.70;9.15;;;;;;;;;;4899579;29;20100;-70
2021/09/03 01:12:48;;;;;;;13.25;9.65;;;;;;;;;;4899372;29;20108;-70
2021/09/03 01:15:16;;;;;;;11.35;9.27;;;;;;;;;;4899667;29;20056;-70
2021/09/03 01:17:42;;;;;;;12.27;9.50;;;;;;;;;;4886062;29;20513;-70
2021/09/03 01:20:10;;;;;;;11.45;9.05;;;;;;;;;;4880779;29;20064;-70
2021/09/03 01:22:37;;;;;;;12.13;9.00;;;;;;;;;;4880581;29;20053;-70
2021/09/03 01:25:05;;;;;;;10.50;8.73;;;;;;;;;;4880584;29;20053;-70
2021/09/03 01:27:33;;;;;;;12.20;9.15;;;;;;;;;;4879826;29;20067;-70
2021/09/03 01:29:59;;;;;;;10.23;8.88;;;;;;;;;;4880567;29;20120;-70
2021/09/03 01:32:26;;;;;;;13.27;9.25;;;;;;;;;;4880507;29;20053;-69
2021/09/03 01:34:52;;;;;;;13.52;10.05;;;;;;;;;;4880623;29;20049;-70
2021/09/03 01:37:19;;;;;;;13.13;9.45;;;;;;;;;;4880543;29;20061;-70
2021/09/03 01:39:46;;;;;;;14.63;10.50;;;;;;;;;;4880303;29;20135;-69
2021/09/03 01:42:12;;;;;;;13.27;9.80;;;;;;;;;;4880220;29;20056;-69
2021/09/03 01:44:39;;;;;;;11.93;9.23;;;;;;;;;;4879184;29;20077;-70
2021/09/03 01:47:05;;;;;;;12.68;9.52;;;;;;;;;;4880365;29;20049;-70
2021/09/03 01:49:32;;;;;;;12.65;9.35;;;;;;;;;;4880246;29;20056;-70
2021/09/03 01:51:59;;;;;;;15.65;10.30;;;;;;;;;;4880235;29;20417;-69
2021/09/03 01:54:25;;;;;;;15.10;9.32;;;;;;;;;;4880310;29;20045;-70
2021/09/03 01:56:52;;;;;;;14.27;9.40;;;;;;;;;;4879837;29;20064;-70
2021/09/03 01:59:18;;;;;;;13.70;9.93;;;;;;;;;;4880054;29;20112;-70
2021/09/03 02:01:45;;;;;;;14.15;9.30;;;;;;;;;;4879961;29;20057;-70
2021/09/03 02:04:12;;;;;;;12.43;9.70;;;;;;;;;;4880084;29;20448;-70
2021/09/03 02:06:39;;;;;;;14.07;9.35;;;;;;;;;;4880335;29;20105;-70
2021/09/03 02:09:05;;;;;;;12.63;9.60;;;;;;;;;;4879959;29;20049;-70
2021/09/03 02:11:32;;;;;;;13.35;9.07;;;;;;;;;;4879755;29;20136;-70
2021/09/03 02:13:59;;;;;;;14.85;9.90;;;;;;;;;;4911367;23;20450;-66
2021/09/03 02:16:26;;;;;;;14.80;9.70;;;;;;;;;;4917511;29;20056;-67
2021/09/03 02:18:52;;;;;;;13.90;8.70;;;;;;;;;;4917300;29;20044;-67
2021/09/03 02:21:19;;;;;;;12.52;9.38;;;;;;;;;;4917234;29;20499;-67
2021/09/03 02:23:46;;;;;;;12.68;9.10;;;;;;;;;;4913581;29;20056;-67
2021/09/03 02:26:12;;;;;;;21.20;9.82;;;;;;;;;;4897135;29;20100;-66
2021/09/03 02:28:39;;;;;;;10.63;8.82;;;;;;;;;;4898196;29;20401;-65
2021/09/03 02:31:05;;;;;;;13.25;9.07;;;;;;;;;;4898233;29;20048;-66
2021/09/03 02:33:32;;;;;;;13.45;9.32;;;;;;;;;;4897882;29;20518;-66
2021/09/03 02:35:58;;;;;;;12.23;8.73;;;;;;;;;;4898265;29;20056;-67
2021/09/03 02:38:25;;;;;;;15.38;9.48;;;;;;;;;;4898008;29;20104;-66
2021/09/03 02:40:52;;;;;;;13.05;9.85;;;;;;;;;;4897964;29;20056;-67
2021/09/03 02:43:18;;;;;;;12.93;8.65;;;;;;;;;;4897913;29;20057;-66
2021/09/03 02:45:45;;;;;;;11.73;9.40;;;;;;;;;;4897770;29;20044;-67
2021/09/03 02:48:12;;;;;;;13.20;9.65;;;;;;;;;;4897590;29;20052;-67
2021/09/03 02:50:38;;;;;;;13.88;9.52;;;;;;;;;;4879268;29;20057;-66
2021/09/03 02:53:05;;;;;;;11.50;9.43;;;;;;;;;;4878918;29;20057;-67
2021/09/03 02:55:31;;;;;;;13.50;9.73;;;;;;;;;;4878973;29;20049;-65
2021/09/03 02:57:58;;;;;;;13.55;10.23;;;;;;;;;;4880179;29;20056;-67
2021/09/03 03:00:25;;;;;;;12.70;9.50;;;;;;;;;;4897681;29;20052;-66
2021/09/03 03:02:52;;;;;;;18.58;11.02;;;;;;;;;;4897517;29;20619;-67
2021/09/03 03:05:21;;;;;;;14.93;10.55;;;;;;;;;;4897568;29;20053;-66
2021/09/03 03:07:47;;;;;;;13.70;9.18;;;;;;;;;;4897629;29;20108;-67
2021/09/03 03:10:14;;;;;;;13.50;9.00;;;;;;;;;;4878271;29;20108;-65
2021/09/03 03:12:41;;;;;;;17.02;9.60;;;;;;;;;;4878607;29;20108;-67
2021/09/03 03:15:08;;;;;;;11.55;9.23;;;;;;;;;;4878905;29;20473;-67
2021/09/03 03:17:35;;;;;;;12.65;9.38;;;;;;;;;;4878254;29;20133;-67
2021/09/03 03:20:03;;;;;;;15.40;10.27;;;;;;;;;;4897536;29;20492;-67
2021/09/03 03:22:29;;;;;;;16.05;10.65;;;;;;;;;;4897071;29;20108;-67
2021/09/03 03:24:56;;;;;;;13.07;9.57;;;;;;;;;;4897304;29;20064;-67
2021/09/03 03:27:22;;;;;;;14.50;9.93;;;;;;;;;;4897014;29;20057;-67
2021/09/03 03:29:49;;;;;;;14.57;10.57;;;;;;;;;;4879513;29;20569;-67
2021/09/03 03:32:15;;;;;;;14.20;9.27;;;;;;;;;;4878332;29;20112;-67
2021/09/03 03:34:42;;;;;;;11.48;9.25;;;;;;;;;;4878465;29;20120;-67
2021/09/03 03:37:09;;;;;;;13.27;9.98;;;;;;;;;;4878591;29;20053;-67
2021/09/03 03:39:35;;;;;;;10.40;8.68;;;;;;;;;;4878180;29;20505;-67
2021/09/03 03:42:02;;;;;;;13.05;9.73;;;;;;;;;;4878176;29;20493;-67
2021/09/03 03:44:29;;;;;;;13.32;9.88;;;;;;;;;;4878110;29;20045;-66
2021/09/03 03:46:56;;;;;;;13.05;8.80;;;;;;;;;;4878385;29;20061;-67
2021/09/03 03:49:22;;;;;;;15.20;10.18;;;;;;;;;;4878342;29;20497;-67
2021/09/03 03:51:49;;;;;;;14.52;9.88;;;;;;;;;;4896512;29;20105;-66
2021/09/03 03:54:15;;;;;;;13.07;9.27;;;;;;;;;;4896712;29;20077;-66
2021/09/03 03:56:42;;;;;;;12.82;9.25;;;;;;;;;;4896802;29;20480;-67
2021/09/03 03:59:09;;;;;;;13.75;9.05;;;;;;;;;;4880360;29;20057;-68
2021/09/03 04:01:35;;;;;;;13.30;9.50;;;;;;;;;;4878117;29;20465;-67
2021/09/03 04:04:02;;;;;;;12.57;9.10;;;;;;;;;;4877874;29;20049;-67
2021/09/03 04:06:29;;;;;;;11.95;9.60;;;;;;;;;;4878014;29;20116;-67
2021/09/03 04:08:55;;;;;;;14.05;10.27;;;;;;;;;;4878051;29;20512;-66
2021/09/03 04:11:22;;;;;;;13.75;9.95;;;;;;;;;;4878281;29;20053;-67
2021/09/03 04:13:49;;;;;;;14.07;10.23;;;;;;;;;;4879787;29;20142;-66
2021/09/03 04:16:15;;;;;;;17.55;10.43;;;;;;;;;;4878689;29;20140;-65
2021/09/03 04:18:42;;;;;;;14.10;10.65;;;;;;;;;;4892635;29;20064;-67
2021/09/03 04:21:09;;;;;;;14.25;11.07;;;;;;;;;;4899102;29;20057;-66
2021/09/03 04:23:35;;;;;;;13.98;9.88;;;;;;;;;;4900035;29;20056;-67
2021/09/03 04:26:02;;;;;;;14.63;9.93;;;;;;;;;;4900528;29;20049;-66
2021/09/03 04:28:28;;;;;;;14.70;10.55;;;;;;;;;;4900248;29;20468;-66
2021/09/03 04:30:55;;;;;;;15.80;10.75;;;;;;;;;;4900484;29;20056;-67
2021/09/03 04:33:22;;;;;;;13.18;10.60;;;;;;;;;;4899915;29;20053;-66
2021/09/03 04:35:48;;;;;;;14.70;10.65;;;;;;;;;;4900393;29;20049;-65
2021/09/03 04:38:15;;;;;;;13.52;10.57;;;;;;;;;;4900149;29;20492;-67
2021/09/03 04:40:41;;;;;;;17.80;11.32;;;;;;;;;;4900259;29;20056;-67
2021/09/03 04:43:08;;;;;;;14.23;10.20;;;;;;;;;;4899975;29;20053;-65
2021/09/03 04:45:35;;;;;;;12.40;9.57;;;;;;;;;;4897172;29;20060;-66
2021/09/03 04:48:01;;;;;;;13.00;10.32;;;;;;;;;;4880376;29;20076;-66
2021/09/03 04:50:29;;;;;;;15.00;10.35;;;;;;;;;;4891233;29;20052;-67
2021/09/03 04:52:56;;;;;;;16.10;10.60;;;;;;;;;;4917221;29;20084;-67
2021/09/03 04:55:23;;;;;;;19.48;12.55;;;;;;;;;;4913601;29;20045;-66
2021/09/03 04:57:50;;;;;;;17.52;11.55;;;;;;;;;;4898753;29;20080;-67
2021/09/03 05:00:17;;;;;;;18.42;12.00;;;;;;;;;;4899770;29;20104;-66
2021/09/03 05:02:45;;;;;;;17.55;11.10;;;;;;;;;;4899584;29;20609;-66
2021/09/03 05:05:13;;;;;;;16.33;11.25;;;;;;;;;;4899410;29;20053;-67
2021/09/03 05:07:39;;;;;;;19.67;11.63;;;;;;;;;;4899709;29;20453;-67
2021/09/03 05:10:08;;;;;;;17.08;11.00;;;;;;;;;;4896695;29;20108;-66
2021/09/03 05:12:36;;;;;;;17.83;11.32;;;;;;;;;;4881748;29;20088;-66
2021/09/03 05:15:09;;;;;;;13.95;9.80;;;;;;;;;;4881762;29;20057;-67
2021/09/03 05:17:36;;;;;;;16.30;11.90;;;;;;;;;;4896099;29;20496;-66
2021/09/03 05:20:05;;;;;;;15.30;10.52;;;;;;;;;;4899706;29;20052;-66
2021/09/03 05:22:33;;;;;;;19.15;11.18;;;;;;;;;;4893438;29;20049;-67
2021/09/03 05:25:00;;;;;;;17.02;11.98;;;;;;;;;;4898992;29;20092;-66
2021/09/03 05:27:27;;;;;;;16.95;11.90;;;;;;;;;;4899841;29;20500;-66
2021/09/03 05:29:54;;;;;;;21.27;11.00;;;;;;;;;;4918266;29;20499;-67
2021/09/03 05:32:21;;;;;;;14.23;9.77;;;;;;;;;;4917243;29;20099;-67
2021/09/03 05:34:48;;;;;;;20.40;10.60;;;;;;;;;;4917937;29;20052;-65
2021/09/03 05:37:15;;;;;;;16.83;10.98;;;;;;;;;;4917950;29;20419;-67
2021/09/03 05:39:42;;;;;;;16.17;10.82;;;;;;;;;;4917975;29;20056;-67
2021/09/03 05:42:10;;;;;;;14.27;10.55;;;;;;;;;;4917630;29;20500;-67
2021/09/03 05:44:37;;;;;;;13.32;10.30;;;;;;;;;;4916446;29;20056;-67
2021/09/03 05:47:04;;;;;;;15.10;10.95;;;;;;;;;;4898899;29;20060;-66
2021/09/03 05:49:31;;;;;;;16.95;11.07;;;;;;;;;;4884918;29;20057;-67
2021/09/03 05:51:57;;;;;;;15.07;10.63;;;;;;;;;;4884358;29;20105;-67
2021/09/03 05:54:24;;;;;;;18.95;11.07;;;;;;;;;;4906471;29;20052;-66
2021/09/03 05:56:50;;;;;;;17.73;11.18;;;;;;;;;;4916153;29;20052;-67
2021/09/03 05:59:17;;;;;;;16.42;11.68;;;;;;;;;;4898783;29;20052;-66
2021/09/03 06:01:43;;;;;;;13.52;11.02;;;;;;;;;;4897647;29;20112;-67
2021/09/03 06:04:10;;;;;;;16.42;11.80;;;;;;;;;;4884928;29;20512;-66
2021/09/03 06:06:37;;;;;;;13.40;10.82;;;;;;;;;;4879696;29;20052;-67
2021/09/03 06:09:04;;;;;;;14.30;10.88;;;;;;;;;;4879934;29;20077;-66
2021/09/03 06:11:30;;;;;;;14.90;10.23;;;;;;;;;;4892725;29;20056;-66
2021/09/03 06:13:57;;;;;;;15.05;9.75;;;;;;;;;;4898134;29;20500;-67
2021/09/03 06:16:24;;;;;;;14.18;10.55;;;;;;;;;;4880360;29;20097;-67
2021/09/03 06:18:50;;;;;;;13.43;9.75;;;;;;;;;;4881295;29;20131;-65
2021/09/03 06:21:17;;;;;;;18.33;9.85;;;;;;;;;;4896313;29;20048;-66
2021/09/03 06:23:44;;;;;;;14.18;10.45;;;;;;;;;;4891061;29;20056;-65
2021/09/03 06:26:10;;;;;;;13.98;10.43;;;;;;;;;;4896126;29;20052;-65
2021/09/03 06:28:37;;;;;;;17.23;10.52;;;;;;;;;;4896027;29;20060;-65
2021/09/03 06:31:04;;;;;;;13.23;10.35;;;;;;;;;;4895850;29;20057;-67
2021/09/03 06:33:31;;;;;;;13.38;10.25;;;;;;;;;;4881457;29;20107;-66
2021/09/03 06:35:58;;;;;;;13.63;9.88;;;;;;;;;;4879045;29;20093;-66
2021/09/03 06:38:26;;;;;;;14.70;9.88;;;;;;;;;;4877518;29;20540;-67
2021/09/03 06:40:53;;;;;;;16.45;11.00;;;;;;;;;;4879348;29;20503;-66
2021/09/03 06:43:20;;;;;;;13.60;9.52;;;;;;;;;;4875904;29;20565;-66
2021/09/03 06:45:46;;;;;;;15.77;10.35;;;;;;;;;;4876832;29;20053;-66
2021/09/03 06:48:13;;;;;;;12.38;10.13;;;;;;;;;;4895623;29;20583;-65
2021/09/03 06:50:39;;;;;;;15.95;10.40;;;;;;;;;;4895577;29;20104;-66
2021/09/03 06:53:06;;;;;;;13.43;9.98;;;;;;;;;;4895571;29;20068;-66
2021/09/03 06:55:33;;;;;;;14.00;9.85;;;;;;;;;;4881357;29;20508;-66
2021/09/03 06:57:59;;;;;;;11.30;8.43;;;;;;;;;;4888732;29;20060;-66
2021/09/03 07:00:26;;;;;;;11.82;9.20;;;;;;;;;;4893572;29;20057;-65
2021/09/03 07:02:53;;;;;;;15.02;9.52;;;;;;;;;;4883569;29;20127;-66
2021/09/03 07:05:40;;;;;;;15.27;9.75;;;;;;;;;;5086901;27;20859;-64
2021/09/03 07:08:07;;;;;;;12.48;9.23;;;;;;;;;;5087131;28;20487;-67
2021/09/03 07:10:34;;;;;;;14.32;8.40;;;;;;;;;;5086428;28;20457;-67
2021/09/03 07:13:00;;;;;;;13.00;8.85;;;;;;;;;;5070834;28;20102;-67
2021/09/03 07:15:27;;;;;;;11.10;8.57;;;;;;;;;;5082975;28;20052;-67
2021/09/03 07:17:54;;;;;;;13.80;9.25;;;;;;;;;;5072706;28;20061;-67
2021/09/03 07:20:20;;;;;;;15.48;9.98;;;;;;;;;;5067990;28;20052;-67
2021/09/03 07:22:50;;;;;;;14.45;9.32;;;;;;;;;;5079615;28;20048;-66
2021/09/03 07:25:17;;;;;;;12.75;8.70;;;;;;;;;;5076546;28;20499;-66
2021/09/03 07:27:44;;;;;;;14.35;9.80;;;;;;;;;;5086755;28;20450;-66
2021/09/03 07:30:11;;;;;;;11.40;8.90;;;;;;;;;;5086753;28;20048;-66
2021/09/03 07:32:38;;;;;;;11.00;7.72;;;;;;;;;;5085087;28;20056;-66
2021/09/03 07:35:05;;;;;;;13.13;9.20;;;;;;;;;;5086475;28;20052;-66
2021/09/03 07:37:32;;;;;;;14.43;9.55;;;;;;;;;;5067414;28;20082;-66
2021/09/03 07:39:59;;;;;;;11.43;7.78;;;;;;;;;;5066575;28;20452;-66
2021/09/03 07:42:26;;;;;;;13.77;8.98;;;;;;;;;;5065927;28;20052;-66
2021/09/03 07:44:53;;;;;;;11.70;8.73;;;;;;;;;;5066360;28;20056;-67
2021/09/03 07:47:20;;;;;;;10.90;8.45;;;;;;;;;;5086398;28;20082;-66
2021/09/03 07:50:07;;;;;;;13.85;8.65;;;;;;;;;;5085628;28;20094;-70
2021/09/03 07:52:33;;;;;;;11.52;8.07;;;;;;;;;;5084377;28;20045;-69
2021/09/03 07:55:00;;;;;;;9.10;7.18;;;;;;;;;;5080347;28;20044;-73
2021/09/03 07:57:28;;;;;;;9.40;7.05;;;;;;;;;;5072168;28;20453;-74
2021/09/03 07:59:55;;;;;;;11.90;7.25;;;;;;;;;;5074235;28;20052;-74
2021/09/03 08:02:23;;;;;;;11.52;7.97;;;;;;;;;;5073479;28;20264;-74
2021/09/03 08:04:52;;;;;;;12.60;7.93;;;;;;;;;;5072709;28;20045;-72
2021/09/03 08:07:19;;;;;;;12.35;7.15;;;;;;;;;;5073620;28;20044;-68
2021/09/03 08:09:49;;;;;;;10.05;7.35;;;;;;;;;;5074958;28;20052;-73
2021/09/03 08:12:18;;;;;;;8.73;6.47;;;;;;;;;;5072209;28;20045;-66
2021/09/03 08:14:45;;;;;;;11.32;7.05;;;;;;;;;;5083820;22;20106;-66
2021/09/03 08:17:12;;;;;;;8.35;6.40;;;;;;;;;;5023195;28;20124;-67
2021/09/03 08:19:38;;;;;;;7.93;6.55;;;;;;;;;;5021459;28;20111;-65
2021/09/03 08:22:05;;;;;;;7.85;6.07;;;;;;;;;;5022171;28;20072;-65
2021/09/03 08:24:32;;;;;;;9.15;6.05;;;;;;;;;;5022473;28;20041;-65
2021/09/03 08:26:58;;;;;;;7.40;5.78;;;;;;;;;;5020685;28;20120;-64
2021/09/03 08:29:30;;;;;;;10.10;6.35;;;;;;;;;;5004038;28;20062;-65
2021/09/03 08:31:56;;;;;;;7.28;6.25;;;;;;;;;;5020567;28;20049;-66
2021/09/03 08:34:23;;;;;;;10.02;6.20;;;;;;;;;;5020078;28;20046;-65
2021/09/03 08:36:49;;;;;;;9.25;6.20;;;;;;;;;;5021714;28;20049;-65
2021/09/03 08:39:16;;;;;;;7.28;5.93;;;;;;;;;;5023421;28;20108;-65
2021/09/03 08:41:43;;;;;;;8.77;5.53;;;;;;;;;;5019056;28;20092;-64
2021/09/03 08:44:09;;;;;;;11.65;6.15;;;;;;;;;;5001457;28;20509;-65
2021/09/03 08:46:36;;;;;;;6.85;5.70;;;;;;;;;;5023665;28;20058;-65
2021/09/03 08:49:04;;;;;;;8.30;5.88;;;;;;;;;;5019864;28;20444;-65
2021/09/03 08:51:31;;;;;;;8.80;5.75;;;;;;;;;;5020988;28;20099;-65
2021/09/03 08:53:57;;;;;;;7.63;5.78;;;;;;;;;;5023220;28;20190;-65
2021/09/03 08:56:24;;;;;;;7.82;5.60;;;;;;;;;;5022840;28;20049;-65
2021/09/03 08:58:51;;;;;;;7.97;5.07;;;;;;;;;;5025043;28;20104;-65
2021/09/03 09:01:18;;;;;;;10.13;5.70;;;;;;;;;;5020864;28;20389;-65
2021/09/03 09:03:47;;;;;;;7.20;5.97;;;;;;;;;;5018486;28;20097;-65
2021/09/03 09:06:28;;;;;;;6.93;5.45;;;;;;;;;;5023845;28;20046;-65
2021/09/03 09:08:56;;;;;;;8.05;5.75;;;;;;;;;;5022642;28;20103;-65
2021/09/03 09:11:30;;;;;;;6.93;5.65;;;;;;;;;;5019368;28;20485;-65
2021/09/03 09:14:02;;;;;;;8.73;6.00;;;;;;;;;;5022177;28;20443;-65
2021/09/03 09:16:30;;;;;;;7.50;6.10;;;;;;;;;;5020405;28;20099;-65
2021/09/03 09:19:02;;;;;;;7.70;5.72;;;;;;;;;;5022878;28;20066;-65
2021/09/03 09:21:36;;;;;;;6.97;5.53;;;;;;;;;;5027316;28;20057;-65
2021/09/03 09:24:07;;;;;;;7.93;6.30;;;;;;;;;;5019278;28;20112;-65
2021/09/03 09:26:51;;;;;;;7.25;5.22;;;;;;;;;;5019126;28;20054;-65
2021/09/03 09:29:21;;;;;;;7.72;5.47;;;;;;;;;;5020370;28;20052;-65
2021/09/03 09:31:52;;;;;;;6.18;5.05;;;;;;;;;;5019246;28;20053;-65
2021/09/03 09:34:20;;;;;;;8.52;6.18;;;;;;;;;;5019315;28;20068;-65
2021/09/03 09:36:52;;;;;;;8.48;6.43;;;;;;;;;;5022063;28;20566;-66
2021/09/03 09:39:20;;;;;;;5.90;4.60;;;;;;;;;;5004652;28;20064;-65
2021/09/03 09:41:56;;;;;;;9.88;5.10;;;;;;;;;;5003590;28;20053;-65
2021/09/03 09:44:28;;;;;;;8.07;5.65;;;;;;;;;;5019152;28;20464;-65
2021/09/03 09:47:09;;;;;;;7.28;5.18;;;;;;;;;;5019052;28;20054;-65
2021/09/03 09:49:36;;;;;;;7.57;4.70;;;;;;;;;;5020009;28;20053;-65
2021/09/03 09:52:03;;;;;;;10.77;5.20;;;;;;;;;;5018544;28;20050;-65
2021/09/03 09:54:29;;;;;;;6.53;5.45;;;;;;;;;;5005570;28;20062;-66
2021/09/03 09:56:58;;;;;;;5.93;4.88;;;;;;;;;;5022815;28;20096;-66
2021/09/03 09:59:26;;;;;;;5.90;4.68;;;;;;;;;;5004583;28;20057;-65
2021/09/03 10:02:01;;;;;;;5.75;4.60;;;;;;;;;;5018696;28;20049;-65
2021/09/03 10:04:30;;;;;;;9.73;4.97;;;;;;;;;;5026158;28;20081;-65
2021/09/03 10:06:59;;;;;;;6.05;5.03;;;;;;;;;;5032392;28;20482;-65
2021/09/03 10:09:30;;;;;;;4.85;4.05;;;;;;;;;;5031900;28;20061;-65
2021/09/03 10:11:58;;;;;;;7.95;5.15;;;;;;;;;;5032518;28;20053;-65
2021/09/03 10:14:27;;;;;;;6.75;5.10;;;;;;;;;;5032117;28;20059;-65
2021/09/03 10:16:55;;;;;;;7.25;5.43;;;;;;;;;;5032242;28;20045;-65
2021/09/03 10:19:35;;;;;;;5.93;4.55;;;;;;;;;;5032421;28;20053;-65
2021/09/03 10:22:11;;;;;;;7.93;4.65;;;;;;;;;;5016476;28;20050;-65
2021/09/03 10:24:42;;;;;;;5.60;4.22;;;;;;;;;;5014513;28;20103;-65
2021/09/03 10:27:10;;;;;;;6.47;5.05;;;;;;;;;;5032356;28;20107;-65
2021/09/03 10:29:39;;;;;;;6.70;5.45;;;;;;;;;;5031931;28;20507;-65
2021/09/03 10:32:10;;;;;;;5.85;4.70;;;;;;;;;;5031860;28;20049;-66
2021/09/03 10:34:43;;;;;;;6.60;5.03;;;;;;;;;;5031913;28;20045;-65
2021/09/03 10:37:15;;;;;;;5.57;4.70;;;;;;;;;;5032001;28;20049;-65
2021/09/03 10:39:42;;;;;;;;;;;;;;;;;;5032277;28;20057;-65
2021/09/03 10:42:08;;;;;;;6.40;4.88;;;;;;;;;;5031765;28;20325;-65
2021/09/03 10:45:08;;;;;;;5.88;4.70;;;;;;;;;;5031559;28;20053;-66
2021/09/03 10:47:45;;;;;;;10.98;5.65;;;;;;;;;;5031684;28;20060;-66
2021/09/03 10:50:25;;;;;;;6.65;5.68;;;;;;;;;;5032002;28;20385;-65
2021/09/03 10:53:04;;;;;;;6.65;4.45;;;;;;;;;;5031640;28;20057;-65
2021/09/03 10:55:59;;;;;;;8.02;4.78;;;;;;;;;;5031592;28;20049;-66
2021/09/03 10:58:58;;;;;;;5.43;4.90;;;;;;;;;;5031482;28;20144;-66
2021/09/03 11:01:27;;;;;;;6.03;4.47;;;;;;;;;;5003183;28;20057;-66
2021/09/03 11:04:04;;;;;;;5.70;4.90;;;;;;;;;;5031507;28;20500;-66
2021/09/03 11:06:37;;;;;;;5.22;4.18;;;;;;;;;;5031067;28;20087;-66
2021/09/03 11:09:16;;;;;;;5.22;4.35;;;;;;;;;;5031584;28;20053;-66
2021/09/03 11:12:07;;;;;;;9.63;4.80;;;;;;;;;;5031309;28;20114;-67
2021/09/03 11:14:34;;;;;;;9.30;4.25;;;;;;;;;;5017749;28;20504;-66
2021/09/03 11:17:03;;;;;;;6.57;4.80;;;;;;;;;;5011609;28;20100;-67
2021/09/03 11:19:32;;;;;;;5.93;4.57;;;;;;;;;;5012850;28;20128;-66
2021/09/03 11:21:59;;;;;;;6.80;3.97;;;;;;;;;;5028628;28;20053;-66
2021/09/03 11:24:28;;;;;;;5.45;4.40;;;;;;;;;;5029176;28;20057;-67
2021/09/03 11:26:56;;;;;;;6.70;4.80;;;;;;;;;;5029251;28;20559;-66
2021/09/03 11:29:29;;;;;;;4.78;4.32;;;;;;;;;;5009491;28;20049;-66
2021/09/03 11:32:00;;;;;;;7.10;5.00;;;;;;;;;;5008994;28;20049;-66
2021/09/03 11:34:47;;;;;;;5.82;4.15;;;;;;;;;;5027030;28;20045;-66
2021/09/03 11:37:34;;;;;;;4.93;4.30;;;;;;;;;;5029369;28;20057;-66
2021/09/03 11:40:19;;;;;;;6.07;4.55;;;;;;;;;;5029458;28;20107;-66
2021/09/03 11:42:47;;;;;;;6.78;4.55;;;;;;;;;;5028842;28;20492;-66
2021/09/03 11:45:21;;;;;;;5.78;4.13;;;;;;;;;;5028793;28;20046;-66
2021/09/03 11:47:52;;;;;;;5.03;3.90;;;;;;;;;;5012230;28;20459;-66
2021/09/03 11:50:45;;;;;;;5.10;4.32;;;;;;;;;;5013947;28;20169;-66
2021/09/03 11:53:14;;;;;;;;;;;;;;;;;;5033122;28;20507;-66
2021/09/03 11:55:46;;;;;;;4.78;3.97;;;;;;;;;;5021991;28;19976;-66
2021/09/03 11:58:14;;;;;;;6.77;4.60;;;;;;;;;;5028774;28;20519;-67
2021/09/03 12:00:48;;;;;;;5.10;4.03;;;;;;;;;;5025852;28;20749;-65
2021/09/03 12:03:20;;;;;;;6.90;4.70;;;;;;;;;;5023293;28;20050;-66
2021/09/03 12:05:48;;;;;;;4.60;3.42;;;;;;;;;;5023830;28;20271;-66
2021/09/03 12:08:21;;;;;;;5.88;3.95;;;;;;;;;;5021988;28;20095;-66
2021/09/03 12:10:55;;;;;;;5.60;4.10;;;;;;;;;;5005878;28;20049;-66
2021/09/03 12:13:26;;;;;;;4.57;4.13;;;;;;;;;;5023220;28;20049;-66
2021/09/03 12:16:03;;;;;;;4.45;4.05;;;;;;;;;;5022460;28;20455;-66
2021/09/03 12:18:34;;;;;;;5.65;4.38;;;;;;;;;;5019959;28;20429;-66
2021/09/03 12:21:05;;;;;;;52.10;32.92;;;;;;;;;;5025558;28;20099;-66
2021/09/03 12:23:34;;;;;;;9.60;5.40;;;;;;;;;;5020098;28;20112;-66
2021/09/03 12:26:09;;;;;;;6.55;5.10;;;;;;;;;;5021800;28;20095;-67
2021/09/03 12:28:36;;;;;;;6.45;5.13;;;;;;;;;;5022042;28;20358;-67
2021/09/03 12:31:12;;;;;;;5.88;4.07;;;;;;;;;;5022596;28;20436;-66
2021/09/03 12:33:53;;;;;;;4.28;3.88;;;;;;;;;;5021498;28;20053;-66
2021/09/03 12:36:25;;;;;;;5.13;4.28;;;;;;;;;;5021591;28;20293;-66
2021/09/03 12:39:05;;;;;;;4.13;3.67;;;;;;;;;;5019875;28;20050;-66
2021/09/03 12:41:42;;;;;;;4.18;3.67;;;;;;;;;;5024917;28;20474;-67
2021/09/03 12:44:30;;;;;;;5.50;3.65;;;;;;;;;;5004598;28;20053;-68
2021/09/03 12:47:01;;;;;;;4.10;3.53;;;;;;;;;;5024238;28;20492;-67
2021/09/03 12:49:32;;;;;;;5.63;3.60;;;;;;;;;;5025279;28;20099;-68
2021/09/03 12:52:02;;;;;;;5.50;3.80;;;;;;;;;;5022706;28;20786;-68
2021/09/03 12:54:30;;;;;;;4.65;3.80;;;;;;;;;;5022950;28;20303;-68
2021/09/03 12:56:56;;;;;;;4.63;4.03;;;;;;;;;;5022489;28;20049;-67
2021/09/03 12:59:23;;;;;;;4.15;3.75;;;;;;;;;;5020259;28;20049;-66
2021/09/03 13:01:50;;;;;;;3.50;3.20;;;;;;;;;;5021365;28;20045;-65
2021/09/03 13:04:24;;;;;;;3.78;3.28;;;;;;;;;;5020111;28;20046;-67
2021/09/03 13:06:52;;;;;;;5.07;3.45;;;;;;;;;;5019950;28;20401;-67
2021/09/03 13:09:21;;;;;;;3.63;3.33;;;;;;;;;;5006427;28;20054;-67
2021/09/03 13:11:48;;;;;;;4.43;4.03;;;;;;;;;;5022592;28;20049;-66
2021/09/03 13:14:15;;;;;;;4.03;3.70;;;;;;;;;;5026667;28;20042;-67
2021/09/03 13:16:42;;;;;;;3.60;3.30;;;;;;;;;;5019322;28;20050;-68
2021/09/03 13:19:11;;;;;;;4.88;3.25;;;;;;;;;;5022147;28;20045;-67
2021/09/03 13:21:39;;;;;;;4.15;3.63;;;;;;;;;;5019380;28;20096;-67
2021/09/03 13:24:06;;;;;;;4.18;3.30;;;;;;;;;;4989510;28;20042;-67
2021/09/03 13:26:32;;;;;;;3.65;3.15;;;;;;;;;;5021903;28;20783;-67
2021/09/03 13:29:00;;;;;;;4.25;3.08;;;;;;;;;;5020564;28;20058;-67
2021/09/03 13:31:26;;;;;;;6.68;3.72;;;;;;;;;;5002958;28;20475;-67
2021/09/03 13:33:55;;;;;;;4.18;3.45;;;;;;;;;;5018617;28;20264;-67
2021/09/03 13:36:22;;;;;;;4.35;3.30;;;;;;;;;;5020923;28;20472;-67
2021/09/03 13:38:54;;;;;;;8.27;3.47;;;;;;;;;;5018542;28;20049;-67
2021/09/03 13:41:21;;;;;;;3.47;3.17;;;;;;;;;;5022272;28;20042;-67
2021/09/03 13:43:48;;;;;;;3.60;3.30;;;;;;;;;;5018532;28;20054;-67
2021/09/03 13:46:15;;;;;;;3.90;3.50;;;;;;;;;;5020788;28;20401;-67
2021/09/03 13:48:43;;;;;;;4.07;3.10;;;;;;;;;;5019017;28;20424;-66
2021/09/03 13:51:10;;;;;;;3.40;3.10;;;;;;;;;;5021486;28;20068;-66
2021/09/03 13:53:37;;;;;;;4.40;3.72;;;;;;;;;;5019510;28;20058;-67
2021/09/03 13:56:04;;;;;;;3.40;3.10;;;;;;;;;;5021886;28;20416;-67
2021/09/03 13:58:30;;;;;;;3.88;3.47;;;;;;;;;;4988926;28;20111;-67
2021/09/03 14:00:57;;;;;;;5.00;3.55;;;;;;;;;;5022140;28;20078;-66
2021/09/03 14:03:24;;;;;;;6.28;3.25;;;;;;;;;;5022209;28;20508;-67
2021/09/03 14:05:51;;;;;;;3.90;3.38;;;;;;;;;;5018266;28;20046;-67
2021/09/03 14:08:17;;;;;;;3.60;3.17;;;;;;;;;;5022048;28;20054;-67
2021/09/03 14:10:51;;;;;;;4.13;3.17;;;;;;;;;;5020052;28;20092;-66
2021/09/03 14:13:18;;;;;;;5.88;3.53;;;;;;;;;;5024674;28;20045;-67
2021/09/03 14:15:46;;;;;;;4.03;3.67;;;;;;;;;;5057825;23;20049;-67
2021/09/03 14:18:13;;;;;;;3.78;3.40;;;;;;;;;;5039662;28;20049;-67
2021/09/03 14:20:40;;;;;;;3.95;3.55;;;;;;;;;;5038201;28;20052;-66
2021/09/03 14:23:08;;;;;;;4.78;3.70;;;;;;;;;;5038315;28;20049;-67
2021/09/03 14:25:35;;;;;;;5.75;3.33;;;;;;;;;;5042000;28;20049;-67
2021/09/03 14:28:04;;;;;;;4.68;3.72;;;;;;;;;;5038278;28;20049;-66
2021/09/03 14:30:31;;;;;;;3.67;3.30;;;;;;;;;;5039488;28;20045;-66
2021/09/03 14:32:58;;;;;;;3.97;3.58;;;;;;;;;;5037145;28;20099;-66
2021/09/03 14:35:24;;;;;;;7.50;5.07;;;;;;;;;;5043471;28;20111;-67
2021/09/03 14:37:51;;;;;;;3.92;3.38;;;;;;;;;;5037460;28;20416;-66
2021/09/03 14:40:18;;;;;;;3.72;3.20;;;;;;;;;;5038937;28;20053;-66
2021/09/03 14:42:44;;;;;;;5.03;3.65;;;;;;;;;;5037323;28;20566;-66